CheckWX is a tool to help pilots better visualize weather data.  It is not intended as a substitute for an official pre-flight weather briefing.

15:05:04 UTC

WBKT METAR
Kudat Airport
Kudat, Malaysia
Current

1 hour ago

WBKT 121400Z VRB02KT 9999 -RA FEW013 SCT033 24/24 Q1009
Observed
Jul-12 @ 14:00 UTC
Wind
  • Variable at 2 KTS
Visibility
10,000+ meters
Flight Rules
VFR
Conditions
Light Rain
Cloud Levels
  • Few at 1,300' AGL
  • Scattered at 3,300' AGL
Temperature
24°C / 75°F
Dewpoint
24°C / 75°F
Humidity
100%
Altimeter
29.79" Hg
Pressure
1008.92 hPa
Previous

2 hours ago

WBKT 121300Z VRB02KT 9999 -RA FEW013 SCT033 24/24 Q1009
Observed
Jul-12 @ 13:00 UTC
Wind
  • Variable at 2 KTS
Visibility
10,000+ meters
Flight Rules
VFR
Conditions
Light Rain
Cloud Levels
  • Few at 1,300' AGL
  • Scattered at 3,300' AGL
Temperature
24°C / 75°F
Dewpoint
24°C / 75°F
Humidity
100%
Altimeter
29.79" Hg
Pressure
1008.92 hPa
Previous

3 hours ago

WBKT 121200Z VRB01KT 9999 -RA FEW013 SCT033 25/24 Q1009 RETSRA
Observed
Jul-12 @ 12:00 UTC
Wind
  • Variable at 1 KTS
Visibility
10,000+ meters
Flight Rules
VFR
Conditions
Light Rain
Cloud Levels
  • Few at 1,300' AGL
  • Scattered at 3,300' AGL
Temperature
25°C / 77°F
Dewpoint
24°C / 75°F
Humidity
94%
Altimeter
29.79" Hg
Pressure
1008.92 hPa